Time;durP1;ratioP1;P1;durP2;ratioP2;P2;SDS_P1;SDS_P2;PMS_P1;PMS_P2;Temp;Humidity;BMP_temperature;BMP_pressure;BME280_temperature;BME280_humidity;BME280_pressure;Samples;Min_cycle;Max_cycle;Signal;HPM_P1;HPM_P2
2022/01/26 00:07:34;;;;;;;79.30;28.65;;;;;;;;;;5072409;28;20041;-65
2022/01/26 00:10:00;;;;;;;78.88;26.85;;;;;;;;;;5072401;28;20094;-65
2022/01/26 00:12:26;;;;;;;81.22;27.23;;;;;;;;;;5071051;28;20033;-65
2022/01/26 00:14:52;;;;;;;86.47;28.90;;;;;;;;;;5072160;28;20047;-65
2022/01/26 00:17:18;;;;;;;80.72;27.67;;;;;;;;;;5072072;28;20105;-65
2022/01/26 00:19:54;;;;;;;86.72;29.15;;;;;;;;;;5071564;28;20040;-65
2022/01/26 00:28:06;;;;;;;87.95;28.80;;;;;;;;;;5052056;28;20435;-65
2022/01/26 00:38:48;;;;;;;86.18;29.00;;;;;;;;;;5049186;28;20066;-65
2022/01/26 00:41:18;;;;;;;88.32;29.63;;;;;;;;;;5049908;28;20482;-65
2022/01/26 00:43:49;;;;;;;88.38;29.45;;;;;;;;;;5051713;28;20116;-65
2022/01/26 00:46:15;;;;;;;79.70;27.83;;;;;;;;;;5051819;28;20040;-65
2022/01/26 00:48:42;;;;;;;83.55;30.13;;;;;;;;;;5083301;28;20080;-65
2022/01/26 00:51:09;;;;;;;77.72;28.27;;;;;;;;;;5051738;28;20045;-65
2022/01/26 00:53:44;;;;;;;78.47;27.63;;;;;;;;;;5051589;28;20494;-65
2022/01/26 00:56:11;;;;;;;82.15;29.42;;;;;;;;;;5049470;28;20045;-65
2022/01/26 00:58:37;;;;;;;78.93;27.27;;;;;;;;;;5051765;28;20404;-65
2022/01/26 01:01:04;;;;;;;78.97;27.40;;;;;;;;;;5051600;28;20081;-65
2022/01/26 01:03:33;;;;;;;83.65;28.95;;;;;;;;;;5050671;28;20070;-65
2022/01/26 01:06:04;;;;;;;81.68;27.60;;;;;;;;;;5050007;28;20041;-65
2022/01/26 01:08:31;;;;;;;87.30;28.48;;;;;;;;;;5051102;28;20041;-65
2022/01/26 01:10:57;;;;;;;77.30;26.90;;;;;;;;;;5050763;28;20068;-65
2022/01/26 01:13:32;;;;;;;85.45;27.85;;;;;;;;;;5049802;28;20052;-65
2022/01/26 01:15:58;;;;;;;77.97;26.73;;;;;;;;;;5051434;28;20056;-65
2022/01/26 01:21:31;;;;;;;76.25;25.50;;;;;;;;;;5051479;28;20045;-65
2022/01/26 01:24:14;;;;;;;85.32;28.67;;;;;;;;;;5050803;28;20080;-65
2022/01/26 01:29:35;;;;;;;82.40;26.15;;;;;;;;;;5107852;28;20149;-65
2022/01/26 01:32:10;;;;;;;79.70;26.55;;;;;;;;;;5074673;28;20041;-65
2022/01/26 01:34:38;;;;;;;76.50;25.85;;;;;;;;;;5107649;28;20049;-65
2022/01/26 01:37:07;;;;;;;81.25;28.30;;;;;;;;;;5075351;28;20040;-65
2022/01/26 01:39:34;;;;;;;81.88;27.88;;;;;;;;;;5074521;28;20052;-65
2022/01/26 01:42:00;;;;;;;80.88;30.05;;;;;;;;;;5075096;28;20048;-65
2022/01/26 01:44:27;;;;;;;77.03;28.05;;;;;;;;;;5075152;28;20044;-65
2022/01/26 01:46:54;;;;;;;83.53;28.05;;;;;;;;;;5074475;28;20047;-65
2022/01/26 01:49:20;;;;;;;81.13;29.88;;;;;;;;;;5074907;28;20115;-65
2022/01/26 01:51:52;;;;;;;73.00;27.42;;;;;;;;;;5074991;28;20036;-65
2022/01/26 01:54:19;;;;;;;85.82;26.55;;;;;;;;;;5074262;28;20491;-65
2022/01/26 01:56:53;;;;;;;74.68;26.33;;;;;;;;;;5074692;28;20115;-65
2022/01/26 01:59:20;;;;;;;77.82;27.13;;;;;;;;;;5074517;28;20040;-65
2022/01/26 02:01:46;;;;;;;81.20;27.63;;;;;;;;;;5072849;28;20481;-65
2022/01/26 02:04:12;;;;;;;73.78;26.55;;;;;;;;;;5074400;28;20076;-65
2022/01/26 02:06:38;;;;;;;75.25;26.42;;;;;;;;;;5074506;28;20063;-65
2022/01/26 02:09:04;;;;;;;79.57;26.55;;;;;;;;;;5074113;28;20656;-65
2022/01/26 02:11:30;;;;;;;73.30;26.65;;;;;;;;;;5074231;28;20037;-65
2022/01/26 02:14:04;;;;;;;72.57;25.48;;;;;;;;;;5074332;28;20418;-65
2022/01/26 02:16:41;;;;;;;78.50;28.35;;;;;;;;;;5073929;28;20125;-65
2022/01/26 02:19:41;;;;;;;78.55;26.75;;;;;;;;;;5107323;28;20086;-65
2022/01/26 02:54:44;;;;;;;81.38;27.80;;;;;;;;;;5073116;28;20077;-65
2022/01/26 03:02:35;;;;;;;87.97;27.83;;;;;;;;;;5071521;28;20080;-65
2022/01/26 03:05:04;;;;;;;84.38;26.67;;;;;;;;;;5073309;28;20487;-65
2022/01/26 03:10:08;;;;;;;80.13;28.52;;;;;;;;;;5073061;28;20098;-65
2022/01/26 03:12:59;;;;;;;93.63;29.85;;;;;;;;;;5073299;28;20051;-65
2022/01/26 03:15:26;;;;;;;84.90;28.38;;;;;;;;;;5072059;28;20044;-65
2022/01/26 03:20:29;;;;;;;85.55;27.30;;;;;;;;;;5073474;28;20051;-65
2022/01/26 03:28:39;;;;;;;89.80;28.55;;;;;;;;;;5073205;28;20076;-65
2022/01/26 03:31:42;;;;;;;87.47;29.52;;;;;;;;;;5072168;28;20049;-65
2022/01/26 03:34:02;;;;;;;84.30;28.00;;;;;;;;;;5072732;28;20097;-65
2022/01/26 03:36:32;;;;;;;89.70;27.95;;;;;;;;;;5072976;28;20144;-65
2022/01/26 03:39:04;;;;;;;93.40;28.70;;;;;;;;;;5072269;28;20049;-65
2022/01/26 03:44:00;;;;;;;87.05;27.63;;;;;;;;;;5105518;28;20356;-65
2022/01/26 03:46:26;;;;;;;79.28;26.13;;;;;;;;;;5072203;28;20055;-65
2022/01/26 03:48:53;;;;;;;91.85;29.65;;;;;;;;;;5071751;28;20041;-65
2022/01/26 03:51:19;;;;;;;85.68;27.67;;;;;;;;;;5072780;28;20047;-65
2022/01/26 03:53:45;;;;;;;87.75;28.65;;;;;;;;;;5072080;28;20066;-65
2022/01/26 03:56:11;;;;;;;87.35;28.60;;;;;;;;;;5072670;28;20121;-65
2022/01/26 03:58:37;;;;;;;82.32;28.33;;;;;;;;;;5072686;28;20033;-65
2022/01/26 04:01:03;;;;;;;78.78;28.02;;;;;;;;;;5071763;28;20055;-65
2022/01/26 04:03:30;;;;;;;85.90;28.30;;;;;;;;;;5072372;28;20102;-65
2022/01/26 04:05:56;;;;;;;82.55;26.83;;;;;;;;;;5072553;28;20033;-65
2022/01/26 04:08:27;;;;;;;79.55;27.05;;;;;;;;;;5071750;28;20139;-65
2022/01/26 04:13:35;;;;;;;79.65;25.75;;;;;;;;;;5072253;28;20037;-65
2022/01/26 04:16:01;;;;;;;82.25;27.42;;;;;;;;;;5071572;28;20480;-65
2022/01/26 04:18:33;;;;;;;84.43;30.17;;;;;;;;;;5072273;28;20418;-65
2022/01/26 04:21:05;;;;;;;;;;;;;;;;;;5072371;28;20047;-65
2022/01/26 04:23:44;;;;;;;83.15;26.10;;;;;;;;;;5104093;28;19916;-65
2022/01/26 04:26:11;;;;;;;85.78;27.23;;;;;;;;;;5071401;28;20090;-65
2022/01/26 04:28:44;;;;;;;78.50;25.38;;;;;;;;;;5070649;28;20036;-65
2022/01/26 04:31:10;;;;;;;79.43;26.85;;;;;;;;;;5071330;28;20040;-65
2022/01/26 04:33:36;;;;;;;93.65;27.80;;;;;;;;;;5071718;28;20033;-65
2022/01/26 04:36:06;;;;;;;81.05;27.90;;;;;;;;;;5070576;28;20040;-65
2022/01/26 04:38:39;;;;;;;84.68;25.98;;;;;;;;;;5071296;28;20036;-65
2022/01/26 04:43:38;;;;;;;86.28;27.48;;;;;;;;;;5071732;28;20045;-65
2022/01/26 04:46:05;;;;;;;80.38;25.85;;;;;;;;;;5071202;28;20040;-65
2022/01/26 04:48:31;;;;;;;86.45;27.70;;;;;;;;;;5071700;28;20044;-65
2022/01/26 04:50:57;;;;;;;82.68;26.65;;;;;;;;;;5071670;28;20721;-65
2022/01/26 04:53:23;;;;;;;80.20;24.70;;;;;;;;;;5071133;28;20045;-65
2022/01/26 04:55:49;;;;;;;79.90;25.05;;;;;;;;;;5071486;28;20044;-65
2022/01/26 04:58:15;;;;;;;80.90;26.25;;;;;;;;;;5071590;28;20044;-65
2022/01/26 05:00:41;;;;;;;76.68;25.25;;;;;;;;;;5070190;28;20044;-65
2022/01/26 05:03:07;;;;;;;71.95;23.85;;;;;;;;;;5071633;28;20143;-65
2022/01/26 05:05:33;;;;;;;76.65;26.05;;;;;;;;;;5071765;28;20056;-65
2022/01/26 05:07:59;;;;;;;78.38;25.92;;;;;;;;;;5070790;28;20052;-65
2022/01/26 05:10:26;;;;;;;74.05;23.92;;;;;;;;;;5071431;28;20048;-65
2022/01/26 05:12:52;;;;;;;78.80;25.33;;;;;;;;;;5071524;28;20459;-65
2022/01/26 05:15:21;;;;;;;81.10;25.85;;;;;;;;;;5070694;28;20443;-64
2022/01/26 05:17:47;;;;;;;71.38;24.48;;;;;;;;;;5071532;28;20083;-65
2022/01/26 05:20:14;;;;;;;80.25;25.25;;;;;;;;;;5069898;28;20067;-65
2022/01/26 05:22:41;;;;;;;85.25;26.50;;;;;;;;;;5070658;28;20468;-65
2022/01/26 05:25:07;;;;;;;76.95;24.25;;;;;;;;;;5071132;28;20427;-65
2022/01/26 05:27:34;;;;;;;73.07;23.25;;;;;;;;;;5051400;28;20045;-65
2022/01/26 05:30:00;;;;;;;74.53;23.95;;;;;;;;;;5050544;28;20037;-65
2022/01/26 05:32:26;;;;;;;75.05;24.35;;;;;;;;;;5051378;28;20094;-65
2022/01/26 05:34:52;;;;;;;73.68;22.88;;;;;;;;;;5051107;28;20112;-65
2022/01/26 05:37:19;;;;;;;76.15;24.95;;;;;;;;;;5049173;28;20671;-65
2022/01/26 05:39:45;;;;;;;79.03;23.90;;;;;;;;;;5049862;28;20507;-65
2022/01/26 05:42:11;;;;;;;68.68;21.90;;;;;;;;;;5051225;28;20116;-65
2022/01/26 05:44:37;;;;;;;71.45;23.63;;;;;;;;;;5050125;28;20047;-65
2022/01/26 05:47:05;;;;;;;75.72;24.70;;;;;;;;;;5051067;28;20120;-65
2022/01/26 05:49:31;;;;;;;64.20;20.65;;;;;;;;;;5051133;28;20043;-65
2022/01/26 05:51:57;;;;;;;67.05;22.13;;;;;;;;;;5050463;28;20041;-65
2022/01/26 05:54:23;;;;;;;71.53;22.20;;;;;;;;;;5051028;28;20052;-65
2022/01/26 05:56:49;;;;;;;72.43;23.67;;;;;;;;;;5050768;28;20357;-65
2022/01/26 05:59:17;;;;;;;68.93;22.75;;;;;;;;;;5050445;28;20033;-65
2022/01/26 06:01:43;;;;;;;72.15;23.63;;;;;;;;;;5051008;28;20395;-65
2022/01/26 06:04:09;;;;;;;70.55;22.58;;;;;;;;;;5051035;28;20438;-65
2022/01/26 06:06:35;;;;;;;63.80;19.83;;;;;;;;;;5050174;28;20049;-65
2022/01/26 06:09:01;;;;;;;64.20;21.98;;;;;;;;;;5050377;28;20052;-65
2022/01/26 06:11:27;;;;;;;71.43;22.08;;;;;;;;;;5051737;28;20044;-65
2022/01/26 06:13:55;;;;;;;74.40;22.15;;;;;;;;;;5053537;28;20037;-65
2022/01/26 06:16:20;;;;;;;69.22;21.50;;;;;;;;;;5052839;28;20083;-65
2022/01/26 06:18:47;;;;;;;67.82;22.65;;;;;;;;;;5054423;28;20479;-65
2022/01/26 06:21:13;;;;;;;65.68;21.17;;;;;;;;;;5054016;28;20119;-65
2022/01/26 06:23:39;;;;;;;62.63;20.50;;;;;;;;;;5054073;28;20053;-65
2022/01/26 06:26:05;;;;;;;66.28;21.45;;;;;;;;;;5061861;28;20056;-65
2022/01/26 06:28:31;;;;;;;59.55;20.73;;;;;;;;;;5073412;28;20040;-65
2022/01/26 06:31:02;;;;;;;65.80;21.80;;;;;;;;;;5074277;28;20119;-65
2022/01/26 06:33:29;;;;;;;62.05;21.40;;;;;;;;;;5073618;28;20048;-65
2022/01/26 06:35:57;;;;;;;64.60;20.63;;;;;;;;;;5073501;28;20456;-65
2022/01/26 06:38:27;;;;;;;66.43;20.10;;;;;;;;;;5074244;28;20040;-65
2022/01/26 06:40:54;;;;;;;62.28;20.70;;;;;;;;;;5073883;28;20051;-65
2022/01/26 06:43:22;;;;;;;56.47;19.95;;;;;;;;;;5071171;28;20402;-65
2022/01/26 06:45:52;;;;;;;59.15;19.55;;;;;;;;;;5072465;28;20051;-65
2022/01/26 06:51:03;;;;;;;62.35;21.00;;;;;;;;;;5072709;28;20057;-65
2022/01/26 06:53:28;;;;;;;56.30;18.58;;;;;;;;;;5072106;28;20044;-65
2022/01/26 06:55:55;;;;;;;60.90;19.85;;;;;;;;;;5072706;28;20040;-65
2022/01/26 06:58:21;;;;;;;54.60;18.33;;;;;;;;;;5071941;28;20093;-65
2022/01/26 07:00:47;;;;;;;67.20;21.63;;;;;;;;;;5073592;28;20420;-65
2022/01/26 07:03:13;;;;;;;61.75;19.65;;;;;;;;;;5071674;28;20071;-65
2022/01/26 07:05:39;;;;;;;60.28;21.40;;;;;;;;;;5072479;28;20079;-65
2022/01/26 07:08:05;;;;;;;62.15;20.25;;;;;;;;;;5073426;28;20040;-65
2022/01/26 07:10:32;;;;;;;54.47;19.33;;;;;;;;;;5073354;28;20040;-65
2022/01/26 07:12:58;;;;;;;64.05;21.35;;;;;;;;;;5072909;28;20040;-65
2022/01/26 07:23:20;;;;;;;64.75;22.52;;;;;;;;;;5069197;28;20502;-70
2022/01/26 07:25:46;;;;;;;65.55;22.13;;;;;;;;;;5071031;28;20059;-70
2022/01/26 07:28:13;;;;;;;69.93;24.10;;;;;;;;;;5081040;28;20093;-68
2022/01/26 07:30:39;;;;;;;71.18;23.42;;;;;;;;;;5080912;28;20048;-68
2022/01/26 07:33:05;;;;;;;70.45;23.73;;;;;;;;;;5069338;28;20515;-68
2022/01/26 07:35:32;;;;;;;76.25;25.73;;;;;;;;;;5066414;28;20049;-67
2022/01/26 07:38:01;;;;;;;73.57;24.35;;;;;;;;;;5062769;28;20047;-68
2022/01/26 07:40:27;;;;;;;72.00;26.20;;;;;;;;;;5070686;28;20044;-66
2022/01/26 07:42:53;;;;;;;74.22;26.30;;;;;;;;;;5068037;28;20098;-68
2022/01/26 07:45:20;;;;;;;74.53;24.42;;;;;;;;;;5068068;28;20119;-69
2022/01/26 07:47:47;;;;;;;80.93;27.33;;;;;;;;;;5073799;28;20048;-69
2022/01/26 07:50:15;;;;;;;76.13;26.98;;;;;;;;;;5069323;28;20068;-67
2022/01/26 07:52:42;;;;;;;79.40;27.98;;;;;;;;;;5065024;28;20391;-65
2022/01/26 07:55:10;;;;;;;83.28;28.90;;;;;;;;;;5068993;28;20845;-66
2022/01/26 07:57:37;;;;;;;81.10;27.73;;;;;;;;;;5069046;28;20044;-65
2022/01/26 08:00:05;;;;;;;85.53;28.98;;;;;;;;;;5067320;28;20546;-67
2022/01/26 08:02:31;;;;;;;89.45;31.13;;;;;;;;;;5071244;28;20048;-67
2022/01/26 08:04:57;;;;;;;88.25;31.77;;;;;;;;;;5062162;28;20037;-68
2022/01/26 08:07:23;;;;;;;94.22;32.53;;;;;;;;;;5069177;28;20048;-67
2022/01/26 08:09:49;;;;;;;88.93;31.23;;;;;;;;;;5069056;28;20123;-67
2022/01/26 08:12:16;;;;;;;94.43;33.38;;;;;;;;;;5081185;28;20043;-67
2022/01/26 08:14:45;;;;;;;103.28;35.88;;;;;;;;;;5068526;28;20072;-67
2022/01/26 08:17:14;;;;;;;102.85;36.90;;;;;;;;;;5068647;28;20054;-68
2022/01/26 08:19:41;;;;;;;99.57;35.75;;;;;;;;;;5067029;28;20510;-68
2022/01/26 08:22:07;;;;;;;101.25;37.80;;;;;;;;;;5066939;28;20045;-68
2022/01/26 08:24:33;;;;;;;112.10;38.58;;;;;;;;;;5066097;28;20051;-67
2022/01/26 08:27:06;;;;;;;115.93;40.13;;;;;;;;;;5062023;28;20948;-66
2022/01/26 08:29:41;;;;;;;113.18;40.40;;;;;;;;;;5067213;28;20080;-69
2022/01/26 08:32:07;;;;;;;124.53;42.72;;;;;;;;;;5067694;28;20041;-69
2022/01/26 08:34:33;;;;;;;115.20;42.40;;;;;;;;;;5067482;28;20036;-67
2022/01/26 08:37:00;;;;;;;129.82;45.72;;;;;;;;;;5071106;28;20163;-67
2022/01/26 08:39:26;;;;;;;122.40;43.42;;;;;;;;;;5066375;28;20048;-69
2022/01/26 08:41:52;;;;;;;130.98;48.05;;;;;;;;;;5064428;28;20376;-69
2022/01/26 08:44:18;;;;;;;130.57;45.42;;;;;;;;;;5050900;28;20131;-68
2022/01/26 08:46:45;;;;;;;131.15;46.15;;;;;;;;;;5066703;28;20052;-68
2022/01/26 08:49:11;;;;;;;129.25;47.63;;;;;;;;;;5066560;28;20044;-69
2022/01/26 08:51:37;;;;;;;129.88;48.75;;;;;;;;;;5065428;28;20071;-70
2022/01/26 08:54:03;;;;;;;133.70;48.25;;;;;;;;;;5050379;28;20094;-69
2022/01/26 08:56:29;;;;;;;130.90;48.08;;;;;;;;;;5066816;28;20040;-68
2022/01/26 08:58:56;;;;;;;134.60;48.22;;;;;;;;;;5069602;28;20059;-69
2022/01/26 09:01:22;;;;;;;135.80;48.67;;;;;;;;;;5066508;28;20044;-68
2022/01/26 09:03:48;;;;;;;135.95;47.83;;;;;;;;;;5066924;28;20140;-66
2022/01/26 09:06:14;;;;;;;129.38;47.60;;;;;;;;;;5066956;28;20119;-66
2022/01/26 09:08:43;;;;;;;135.50;48.58;;;;;;;;;;5060528;28;20666;-65
2022/01/26 09:11:09;;;;;;;132.25;46.40;;;;;;;;;;5064947;28;20422;-65
2022/01/26 09:13:36;;;;;;;131.05;46.42;;;;;;;;;;5069200;28;20048;-66
2022/01/26 09:16:04;;;;;;;138.93;47.88;;;;;;;;;;5045957;28;20045;-65
2022/01/26 09:18:48;;;;;;;135.73;49.10;;;;;;;;;;5067490;28;20506;-66
2022/01/26 09:21:15;;;;;;;136.73;46.20;;;;;;;;;;5066817;28;20102;-67
2022/01/26 09:23:41;;;;;;;130.90;45.63;;;;;;;;;;5068147;28;20044;-66
2022/01/26 09:26:07;;;;;;;134.23;47.45;;;;;;;;;;5063411;28;20052;-66
2022/01/26 09:28:33;;;;;;;127.03;45.65;;;;;;;;;;5068353;28;20044;-67
2022/01/26 09:30:59;;;;;;;129.23;47.05;;;;;;;;;;5067196;28;20075;-66
2022/01/26 09:33:25;;;;;;;130.90;46.30;;;;;;;;;;5068348;28;20048;-67
2022/01/26 09:35:51;;;;;;;129.18;47.13;;;;;;;;;;5066981;28;20115;-67
2022/01/26 09:38:17;;;;;;;129.07;47.55;;;;;;;;;;5069451;28;20539;-66
2022/01/26 09:40:44;;;;;;;131.95;46.33;;;;;;;;;;5067372;28;20123;-66
2022/01/26 09:43:11;;;;;;;125.75;45.53;;;;;;;;;;5074737;28;20087;-66
2022/01/26 09:45:38;;;;;;;125.95;45.50;;;;;;;;;;5067958;28;20072;-65
2022/01/26 09:48:04;;;;;;;126.65;45.17;;;;;;;;;;5072163;28;20043;-67
2022/01/26 09:50:31;;;;;;;123.65;43.80;;;;;;;;;;5070458;28;20051;-67
2022/01/26 09:52:57;;;;;;;124.80;43.03;;;;;;;;;;5069583;28;20040;-68
2022/01/26 09:55:24;;;;;;;127.38;44.15;;;;;;;;;;5070778;28;20094;-66
2022/01/26 09:57:57;;;;;;;121.97;43.15;;;;;;;;;;5070533;28;20039;-68
2022/01/26 10:00:23;;;;;;;117.60;42.88;;;;;;;;;;5069776;28;20051;-68
2022/01/26 10:02:56;;;;;;;122.20;43.92;;;;;;;;;;5070456;28;20482;-67
2022/01/26 10:05:22;;;;;;;120.20;42.05;;;;;;;;;;5069982;28;20041;-67
2022/01/26 10:18:44;;;;;;;111.03;39.72;;;;;;;;;;5071821;28;20051;-68
2022/01/26 10:21:10;;;;;;;113.38;39.75;;;;;;;;;;5071531;28;20044;-66
2022/01/26 10:23:38;;;;;;;109.40;39.15;;;;;;;;;;5070507;28;20546;-66
2022/01/26 10:26:08;;;;;;;111.78;40.28;;;;;;;;;;5070883;28;20127;-67
2022/01/26 10:28:48;;;;;;;111.78;40.78;;;;;;;;;;5071879;28;20048;-66
2022/01/26 10:31:15;;;;;;;107.47;39.70;;;;;;;;;;5070114;28;20059;-66
2022/01/26 10:33:52;;;;;;;113.30;40.15;;;;;;;;;;5070835;28;20032;-66
2022/01/26 10:36:18;;;;;;;109.25;38.35;;;;;;;;;;5050423;28;20047;-67
2022/01/26 10:38:44;;;;;;;113.65;39.35;;;;;;;;;;5070880;28;20044;-65
2022/01/26 10:41:20;;;;;;;110.72;41.40;;;;;;;;;;5070885;28;20037;-65
2022/01/26 10:43:50;;;;;;;110.07;41.83;;;;;;;;;;5067859;28;20097;-66
2022/01/26 10:46:32;;;;;;;109.35;39.58;;;;;;;;;;5068541;28;20139;-66
2022/01/26 10:49:16;;;;;;;111.13;40.25;;;;;;;;;;5067569;28;20032;-65
2022/01/26 10:54:36;;;;;;;103.53;38.25;;;;;;;;;;5070909;28;20047;-71
2022/01/26 10:57:04;;;;;;;101.10;36.60;;;;;;;;;;5068483;28;20430;-66
2022/01/26 10:59:34;;;;;;;101.50;35.97;;;;;;;;;;5071004;28;20045;-66
2022/01/26 11:02:06;;;;;;;100.05;36.10;;;;;;;;;;5068419;28;20562;-67
2022/01/26 11:04:34;;;;;;;98.93;34.78;;;;;;;;;;5069303;28;20102;-66
2022/01/26 11:07:01;;;;;;;105.43;38.25;;;;;;;;;;5068051;28;20126;-66
2022/01/26 11:09:31;;;;;;;95.30;37.00;;;;;;;;;;5071018;28;20032;-67
2022/01/26 11:12:04;;;;;;;110.10;38.58;;;;;;;;;;5070373;28;20039;-67
2022/01/26 11:14:39;;;;;;;111.68;41.95;;;;;;;;;;5070369;28;20169;-67
2022/01/26 11:17:05;;;;;;;114.15;39.40;;;;;;;;;;5077279;28;20146;-67
2022/01/26 11:19:41;;;;;;;120.05;41.22;;;;;;;;;;5070388;28;20371;-68
2022/01/26 11:22:08;;;;;;;106.15;38.97;;;;;;;;;;5069545;28;20047;-68
2022/01/26 11:24:41;;;;;;;102.45;39.28;;;;;;;;;;5069450;28;20546;-66
2022/01/26 11:27:07;;;;;;;117.22;40.15;;;;;;;;;;5070365;28;20098;-65
2022/01/26 11:29:37;;;;;;;110.65;41.10;;;;;;;;;;5072287;28;20741;-67
2022/01/26 11:32:13;;;;;;;109.40;38.28;;;;;;;;;;5071664;28;20032;-65
2022/01/26 11:34:39;;;;;;;107.75;38.25;;;;;;;;;;5073260;28;20075;-67
2022/01/26 11:37:15;;;;;;;109.22;39.88;;;;;;;;;;5072251;28;20033;-67
2022/01/26 11:45:03;;;;;;;116.03;39.05;;;;;;;;;;5070613;28;20101;-67
2022/01/26 11:45:16;;;;;;;111.82;37.95;;;;;;;;;;5071591;28;20045;-67
2022/01/26 11:48:07;;;;;;;111.82;38.22;;;;;;;;;;5070169;28;20037;-66
2022/01/26 11:50:34;;;;;;;99.30;37.17;;;;;;;;;;5046105;28;20120;-67
2022/01/26 11:53:04;;;;;;;109.43;39.53;;;;;;;;;;5069577;28;20032;-65
2022/01/26 11:55:38;;;;;;;112.07;40.67;;;;;;;;;;5068995;28;20625;-66
2022/01/26 11:58:08;;;;;;;107.70;39.28;;;;;;;;;;5063878;28;20037;-66
2022/01/26 12:00:41;;;;;;;103.10;36.67;;;;;;;;;;5069088;28;20045;-66
2022/01/26 12:03:18;;;;;;;101.18;37.95;;;;;;;;;;5070040;28;20095;-69
2022/01/26 12:05:46;;;;;;;99.38;37.15;;;;;;;;;;5069836;28;20045;-68
2022/01/26 12:08:12;;;;;;;105.47;36.90;;;;;;;;;;5069892;28;20522;-68
2022/01/26 12:10:39;;;;;;;95.25;36.10;;;;;;;;;;5069341;28;20186;-68
2022/01/26 12:13:06;;;;;;;94.63;35.60;;;;;;;;;;5052328;28;20143;-68
2022/01/26 12:15:42;;;;;;;95.22;34.75;;;;;;;;;;5070464;28;20043;-68
2022/01/26 12:18:33;;;;;;;93.43;34.97;;;;;;;;;;5052973;28;20041;-68
2022/01/26 12:32:19;;;;;;;92.85;33.95;;;;;;;;;;5029571;28;20679;-66
2022/01/26 12:35:02;;;;;;;;;;;;;;;;;;5064611;28;20093;-68
2022/01/26 12:45:20;;;;;;;83.88;30.48;;;;;;;;;;5066844;28;20071;-67
2022/01/26 12:47:46;;;;;;;81.07;29.88;;;;;;;;;;5069258;28;20036;-66
2022/01/26 12:50:12;;;;;;;84.20;30.38;;;;;;;;;;5069309;28;20032;-66
2022/01/26 12:52:39;;;;;;;74.93;30.50;;;;;;;;;;5067002;28;20255;-68
2022/01/26 12:55:05;;;;;;;83.93;30.23;;;;;;;;;;5068963;28;20499;-68
2022/01/26 12:57:31;;;;;;;85.80;31.85;;;;;;;;;;5102314;28;20471;-68
2022/01/26 13:00:01;;;;;;;79.15;29.00;;;;;;;;;;5067708;28;20040;-67
2022/01/26 13:02:27;;;;;;;71.90;28.40;;;;;;;;;;5068700;28;20396;-67
2022/01/26 13:05:00;;;;;;;80.68;29.80;;;;;;;;;;5068241;28;20854;-67
2022/01/26 13:07:26;;;;;;;79.07;29.70;;;;;;;;;;5066762;28;20677;-67
2022/01/26 13:09:52;;;;;;;74.93;28.63;;;;;;;;;;5075204;28;20437;-66
2022/01/26 13:12:29;;;;;;;80.07;28.75;;;;;;;;;;5070294;28;20090;-67
2022/01/26 13:15:07;;;;;;;81.80;30.40;;;;;;;;;;5067945;28;20127;-66
2022/01/26 13:17:41;;;;;;;81.80;29.83;;;;;;;;;;5070293;28;20048;-67
2022/01/26 13:34:05;;;;;;;75.00;27.30;;;;;;;;;;5072845;28;20043;-67
2022/01/26 13:36:47;;;;;;;75.93;28.30;;;;;;;;;;5060247;28;20055;-67
2022/01/26 13:41:53;;;;;;;74.22;28.40;;;;;;;;;;5072705;28;20058;-68
2022/01/26 13:50:11;;;;;;;72.60;26.92;;;;;;;;;;5073486;28;20061;-67
2022/01/26 13:52:54;;;;;;;73.88;27.05;;;;;;;;;;5071414;28;20119;-67
2022/01/26 13:55:36;;;;;;;69.50;26.40;;;;;;;;;;5071483;28;20445;-67
2022/01/26 14:00:31;;;;;;;68.80;25.70;;;;;;;;;;5100153;28;20084;-67
2022/01/26 14:03:00;;;;;;;72.22;27.00;;;;;;;;;;5073360;28;20048;-67
2022/01/26 14:05:26;;;;;;;67.75;27.30;;;;;;;;;;5073703;28;20068;-66
2022/01/26 14:07:56;;;;;;;75.32;29.08;;;;;;;;;;5070284;28;20040;-67
2022/01/26 14:10:22;;;;;;;74.10;27.77;;;;;;;;;;5070769;28;20413;-66
2022/01/26 14:12:49;;;;;;;66.68;27.10;;;;;;;;;;5072849;28;20044;-67
2022/01/26 14:15:22;;;;;;;71.00;27.40;;;;;;;;;;5072706;28;20384;-66
2022/01/26 14:20:40;;;;;;;71.45;28.50;;;;;;;;;;5072644;28;20047;-68
2022/01/26 14:25:48;;;;;;;70.93;27.50;;;;;;;;;;5074691;28;20067;-67
2022/01/26 14:28:17;;;;;;;67.03;26.45;;;;;;;;;;5071862;28;20081;-67
2022/01/26 14:30:55;;;;;;;64.00;26.77;;;;;;;;;;5070583;28;20410;-67
2022/01/26 14:33:46;;;;;;;73.40;28.40;;;;;;;;;;5065685;28;20044;-67
2022/01/26 14:36:37;;;;;;;72.47;27.25;;;;;;;;;;5070454;28;20040;-67
2022/01/26 15:00:52;;;;;;;81.15;31.25;;;;;;;;;;5071694;28;20098;-67
2022/01/26 15:08:57;;;;;;;89.55;32.70;;;;;;;;;;5071081;28;20457;-67
2022/01/26 15:48:48;;;;;;;73.43;28.48;;;;;;;;;;5074287;28;20762;-67
2022/01/26 15:51:42;;;;;;;75.32;28.40;;;;;;;;;;5057532;28;20078;-66
2022/01/26 16:04:18;;;;;;;69.75;27.75;;;;;;;;;;5069553;28;20414;-68
2022/01/26 16:05:17;;;;;;;81.82;31.40;;;;;;;;;;5071792;28;20048;-66
2022/01/26 16:07:48;;;;;;;87.07;32.08;;;;;;;;;;5064684;28;20494;-69
2022/01/26 18:04:00;;;;;;;56.80;24.42;;;;;;;;;;5069348;28;20090;-67
2022/01/26 18:39:30;;;;;;;55.42;21.95;;;;;;;;;;5072466;28;20044;-67
2022/01/26 18:50:05;;;;;;;52.85;22.75;;;;;;;;;;5072733;28;20059;-67
2022/01/26 18:52:32;;;;;;;52.72;21.38;;;;;;;;;;5072166;28;20037;-67
2022/01/26 18:54:59;;;;;;;56.40;22.52;;;;;;;;;;5071917;28;20044;-67
2022/01/26 18:57:25;;;;;;;53.15;22.83;;;;;;;;;;5073716;28;20048;-67
2022/01/26 18:59:51;;;;;;;49.63;20.88;;;;;;;;;;5072244;28;20066;-67
2022/01/26 19:02:17;;;;;;;54.10;21.70;;;;;;;;;;5072067;28;20052;-67
2022/01/26 19:04:46;;;;;;;48.83;20.60;;;;;;;;;;5071543;28;20048;-67
2022/01/26 19:07:14;;;;;;;49.47;20.95;;;;;;;;;;5071934;28;20049;-67
2022/01/26 19:09:43;;;;;;;48.28;20.65;;;;;;;;;;5072192;28;20084;-67
2022/01/26 19:12:13;;;;;;;47.30;19.95;;;;;;;;;;5071281;28;20112;-67
2022/01/26 19:14:41;;;;;;;47.13;20.77;;;;;;;;;;5072169;28;20542;-67
2022/01/26 19:17:21;;;;;;;48.63;20.65;;;;;;;;;;5072099;28;20151;-67
2022/01/26 19:25:16;;;;;;;48.85;19.70;;;;;;;;;;5071104;28;20052;-67
2022/01/26 19:27:50;;;;;;;51.55;20.63;;;;;;;;;;5071719;28;20048;-67
2022/01/26 19:43:59;;;;;;;57.47;24.25;;;;;;;;;;5071553;28;20498;-67
2022/01/26 19:51:58;;;;;;;59.80;25.85;;;;;;;;;;5070999;28;20074;-67
2022/01/26 19:54:24;;;;;;;60.13;27.07;;;;;;;;;;5070365;28;20497;-67
2022/01/26 19:56:50;;;;;;;64.63;28.35;;;;;;;;;;5072622;28;20278;-67
2022/01/26 19:59:16;;;;;;;64.45;27.70;;;;;;;;;;5071156;28;20467;-67
2022/01/26 20:01:42;;;;;;;49.42;24.02;;;;;;;;;;5070634;28;20364;-67
2022/01/26 20:04:08;;;;;;;62.22;28.52;;;;;;;;;;5071184;28;20071;-67
2022/01/26 20:06:35;;;;;;;67.03;28.23;;;;;;;;;;5071101;28;20041;-67
2022/01/26 20:09:11;;;;;;;68.95;29.85;;;;;;;;;;5070632;28;20119;-67
2022/01/26 20:11:38;;;;;;;67.07;30.73;;;;;;;;;;5072186;28;20041;-67
2022/01/26 20:14:06;;;;;;;67.25;30.30;;;;;;;;;;5054612;28;20032;-67
2022/01/26 20:16:33;;;;;;;58.25;27.77;;;;;;;;;;5070069;28;20419;-67
2022/01/26 20:18:59;;;;;;;72.07;30.30;;;;;;;;;;5070659;28;20437;-67
2022/01/26 20:21:25;;;;;;;71.03;30.52;;;;;;;;;;5054270;28;20044;-67
2022/01/26 20:23:51;;;;;;;65.40;29.88;;;;;;;;;;5069699;28;20119;-67
2022/01/26 20:26:18;;;;;;;66.60;28.90;;;;;;;;;;5070522;28;20563;-67
2022/01/26 20:28:45;;;;;;;68.80;29.98;;;;;;;;;;5070425;28;20039;-67
2022/01/26 20:31:21;;;;;;;64.47;28.65;;;;;;;;;;5069494;28;20044;-66
2022/01/26 20:33:48;;;;;;;65.70;28.48;;;;;;;;;;5072207;28;20726;-66
2022/01/26 20:36:15;;;;;;;68.80;30.00;;;;;;;;;;5070334;28;20048;-66
2022/01/26 20:38:41;;;;;;;67.20;30.23;;;;;;;;;;5069559;28;20044;-66
2022/01/26 20:41:07;;;;;;;66.55;29.73;;;;;;;;;;5070477;28;20102;-66
2022/01/26 20:43:34;;;;;;;65.45;28.45;;;;;;;;;;5070154;28;20036;-66
2022/01/26 20:46:05;;;;;;;76.43;30.40;;;;;;;;;;5069904;28;20376;-66
2022/01/26 20:48:34;;;;;;;66.68;29.35;;;;;;;;;;5070367;28;20382;-65
2022/01/26 20:51:01;;;;;;;71.32;31.27;;;;;;;;;;5071584;28;20353;-66
2022/01/26 20:53:27;;;;;;;67.57;29.98;;;;;;;;;;5069843;28;20076;-65
2022/01/26 20:55:53;;;;;;;70.28;30.33;;;;;;;;;;5071667;28;20494;-63
2022/01/26 20:58:20;;;;;;;69.22;30.75;;;;;;;;;;5071725;28;20048;-63
2022/01/26 21:00:46;;;;;;;66.25;29.20;;;;;;;;;;5071399;28;20044;-63
2022/01/26 21:03:13;;;;;;;67.57;28.90;;;;;;;;;;5071108;28;20041;-63
2022/01/26 21:05:40;;;;;;;68.65;28.67;;;;;;;;;;5071203;28;20107;-63
2022/01/26 21:08:06;;;;;;;64.88;29.23;;;;;;;;;;5071507;28;20155;-63
2022/01/26 21:10:32;;;;;;;64.13;27.70;;;;;;;;;;5070822;28;20383;-64
2022/01/26 21:12:58;;;;;;;64.78;28.52;;;;;;;;;;5071382;28;20041;-63
2022/01/26 21:15:24;;;;;;;64.53;26.75;;;;;;;;;;5071136;28;20059;-63